createdAt,value
2022-09-01T00:01:27.982Z,19.01
2022-09-01T00:04:13.073Z,19.02
2022-09-01T00:07:07.627Z,19.02
2022-09-01T00:10:04.893Z,19.00
2022-09-01T00:12:36.255Z,18.99
2022-09-01T00:15:29.439Z,18.94
2022-09-01T00:20:54.345Z,18.93
2022-09-01T00:23:24.002Z,19.00
2022-09-01T00:26:09.885Z,18.96
2022-09-01T00:28:39.605Z,18.98
2022-09-01T00:31:19.398Z,18.99
2022-09-01T00:33:56.531Z,18.93
2022-09-01T00:36:31.209Z,18.93
2022-09-01T00:39:10.457Z,18.99
2022-09-01T00:41:52.313Z,18.94
2022-09-01T00:44:35.300Z,18.95
2022-09-01T00:47:14.209Z,18.93
2022-09-01T00:50:03.998Z,18.94
2022-09-01T00:52:42.208Z,18.98
2022-09-01T00:55:25.460Z,18.94
2022-09-01T00:58:00.965Z,18.96
2022-09-01T01:00:36.733Z,18.91
2022-09-01T01:03:10.877Z,18.89
2022-09-01T01:05:59.714Z,18.88
2022-09-01T01:08:38.253Z,18.90
2022-09-01T01:11:19.555Z,18.87
2022-09-01T01:14:01.912Z,18.85
2022-09-01T01:16:32.887Z,18.86
2022-09-01T01:19:01.342Z,18.83
2022-09-01T01:22:01.003Z,18.80
2022-09-01T01:24:31.850Z,18.79
2022-09-01T01:27:13.630Z,18.82
2022-09-01T01:29:46.342Z,18.86
2022-09-01T01:32:13.715Z,18.82
2022-09-01T01:34:48.819Z,18.79
2022-09-01T01:37:16.210Z,18.79
2022-09-01T01:39:46.956Z,18.81
2022-09-01T01:42:15.694Z,18.82
2022-09-01T01:44:50.687Z,18.80
2022-09-01T01:47:21.665Z,18.77
2022-09-01T01:49:48.478Z,18.77
2022-09-01T01:52:26.320Z,18.78
2022-09-01T01:55:05.345Z,18.74
2022-09-01T01:57:36.105Z,18.74
2022-09-01T02:00:08.909Z,18.76
2022-09-01T02:02:38.438Z,18.73
2022-09-01T02:05:13.785Z,18.73
2022-09-01T02:07:44.022Z,18.71
2022-09-01T02:10:17.516Z,18.69
2022-09-01T02:12:54.659Z,18.72
2022-09-01T02:15:21.784Z,18.67
2022-09-01T02:17:49.153Z,18.68
2022-09-01T02:20:17.290Z,18.67
2022-09-01T02:22:46.325Z,18.68
2022-09-01T02:25:17.149Z,18.67
2022-09-01T02:27:44.275Z,18.64
2022-09-01T02:30:13.049Z,18.64
2022-09-01T02:32:43.243Z,18.60
2022-09-01T02:35:11.934Z,18.62
2022-09-01T02:37:40.992Z,18.62
2022-09-01T02:40:10.463Z,18.71
2022-09-01T02:42:43.734Z,18.70
2022-09-01T02:45:17.339Z,18.70
2022-09-01T02:47:47.510Z,18.68
2022-09-01T02:50:17.580Z,18.68
2022-09-01T02:52:46.395Z,18.71
2022-09-01T02:55:14.305Z,18.69
2022-09-01T02:57:41.997Z,18.65
2022-09-01T03:00:23.142Z,18.66
2022-09-01T03:02:53.184Z,18.65
2022-09-01T03:05:29.948Z,18.66
2022-09-01T03:08:02.508Z,18.66
2022-09-01T03:10:36.650Z,18.66
2022-09-01T03:13:08.857Z,18.64
2022-09-01T03:15:39.446Z,18.61
2022-09-01T03:18:09.625Z,18.55
2022-09-01T03:20:39.787Z,18.52
2022-09-01T03:23:11.426Z,18.48
2022-09-01T03:25:44.896Z,18.49
2022-09-01T03:28:15.790Z,18.45
2022-09-01T03:30:50.623Z,18.44
2022-09-01T03:33:19.539Z,18.44
2022-09-01T03:35:47.040Z,18.48
2022-09-01T03:38:22.746Z,18.47
2022-09-01T03:40:55.084Z,18.47
2022-09-01T03:43:27.059Z,18.47
2022-09-01T03:46:01.665Z,18.48
2022-09-01T03:48:29.880Z,18.47
2022-09-01T03:51:02.970Z,18.46
2022-09-01T03:53:40.455Z,18.46
2022-09-01T03:56:09.769Z,18.49
2022-09-01T03:58:38.542Z,18.50
2022-09-01T04:01:05.725Z,18.48
2022-09-01T04:03:40.815Z,18.47
2022-09-01T04:06:15.043Z,18.48
2022-09-01T04:08:43.726Z,18.44
2022-09-01T04:11:17.877Z,18.40
2022-09-01T04:13:46.579Z,18.39
2022-09-01T04:16:40.886Z,18.39
2022-09-01T04:19:21.263Z,18.38
2022-09-01T04:21:52.597Z,18.37
2022-09-01T04:24:20.618Z,18.39
2022-09-01T04:26:49.215Z,18.37
2022-09-01T04:29:19.537Z,18.37
2022-09-01T04:31:52.252Z,18.38
2022-09-01T04:34:23.024Z,18.39
2022-09-01T04:36:58.966Z,18.45
2022-09-01T04:39:26.818Z,18.51
2022-09-01T04:41:54.368Z,18.51
2022-09-01T04:44:22.437Z,18.54
2022-09-01T04:46:51.546Z,18.60
2022-09-01T04:49:25.053Z,18.61
2022-09-01T04:51:55.057Z,18.57
2022-09-01T04:54:23.221Z,18.57
2022-09-01T04:56:52.821Z,18.60
2022-09-01T04:59:26.035Z,18.59
2022-09-01T05:01:56.086Z,18.60
2022-09-01T05:04:32.782Z,18.61
2022-09-01T05:07:01.414Z,18.64
2022-09-01T05:09:35.860Z,18.63
2022-09-01T05:12:15.928Z,18.62
2022-09-01T05:14:52.983Z,18.66
2022-09-01T05:17:20.557Z,18.66
2022-09-01T05:19:51.358Z,18.64
2022-09-01T05:22:23.499Z,18.67
2022-09-01T05:24:55.394Z,18.67
2022-09-01T05:28:08.395Z,18.73
2022-09-01T05:30:41.362Z,18.77
2022-09-01T05:33:13.598Z,18.76
2022-09-01T05:35:45.618Z,18.77
2022-09-01T05:38:14.230Z,18.81
2022-09-01T05:40:42.714Z,18.83
2022-09-01T05:43:15.170Z,18.80
2022-09-01T05:46:05.725Z,18.78
2022-09-01T05:48:48.401Z,18.77
2022-09-01T05:51:42.795Z,18.74
2022-09-01T05:54:10.831Z,18.73
2022-09-01T05:56:43.660Z,18.76
2022-09-01T05:59:24.712Z,18.75
2022-09-01T06:02:03.062Z,18.78
2022-09-01T06:04:31.803Z,18.84
2022-09-01T06:07:06.898Z,18.83
2022-09-01T06:09:40.227Z,18.79
2022-09-01T06:12:07.543Z,18.82
2022-09-01T06:14:35.354Z,18.82
2022-09-01T06:17:04.596Z,18.78
2022-09-01T06:19:37.221Z,18.79
2022-09-01T06:22:05.240Z,18.80
2022-09-01T06:24:32.481Z,18.79
2022-09-01T06:27:00.297Z,18.79
2022-09-01T06:29:38.772Z,18.80
2022-09-01T06:32:13.799Z,18.82
2022-09-01T06:34:43.046Z,18.83
2022-09-01T06:37:11.374Z,18.86
2022-09-01T06:39:40.077Z,18.86
2022-09-01T06:42:11.446Z,18.89
2022-09-01T06:44:41.085Z,18.93
2022-09-01T06:47:09.329Z,18.96
2022-09-01T06:49:40.291Z,18.98
2022-09-01T06:52:07.922Z,19.06
2022-09-01T06:54:40.007Z,19.07
2022-09-01T06:59:58.162Z,19.07
2022-09-01T07:02:26.873Z,19.07
2022-09-01T07:04:57.488Z,19.11
2022-09-01T07:10:28.254Z,19.21
2022-09-01T07:13:07.578Z,19.22
2022-09-01T07:18:34.253Z,19.22
2022-09-01T07:21:36.358Z,19.24
2022-09-01T07:24:07.820Z,19.25
2022-09-01T07:26:48.537Z,19.26
2022-09-01T07:29:18.388Z,19.28
2022-09-01T07:31:49.364Z,19.28
2022-09-01T07:39:55.354Z,19.35
2022-09-01T07:45:28.700Z,19.45
2022-09-01T07:47:59.766Z,19.50
2022-09-01T07:50:41.374Z,19.57
2022-09-01T07:53:22.801Z,19.67
2022-09-01T07:58:33.956Z,19.87
2022-09-01T08:01:04.248Z,19.91
2022-09-01T08:03:31.507Z,19.93
2022-09-01T08:06:18.591Z,19.93
2022-09-01T08:09:00.726Z,19.95
2022-09-01T08:12:02.304Z,20.00
2022-09-01T08:14:36.192Z,20.09
2022-09-01T08:23:29.365Z,20.16
2022-09-01T08:25:58.560Z,20.18
2022-09-01T08:28:26.969Z,20.18
2022-09-01T08:31:10.492Z,20.24
2022-09-01T08:33:41.063Z,20.29
2022-09-01T08:36:12.814Z,20.35
2022-09-01T08:38:42.437Z,20.38
2022-09-01T08:41:27.771Z,20.36
2022-09-01T08:44:19.769Z,20.40
2022-09-01T08:46:47.457Z,20.38
2022-09-01T08:49:27.066Z,20.41
2022-09-01T08:52:07.761Z,20.41
2022-09-01T08:54:43.569Z,20.45
2022-09-01T08:57:20.158Z,20.43
2022-09-01T08:59:58.300Z,20.42
2022-09-01T09:02:56.958Z,20.47
2022-09-01T09:05:42.136Z,20.54
2022-09-01T09:08:36.606Z,20.55
2022-09-01T09:11:41.010Z,20.61
2022-09-01T09:14:17.057Z,20.61
2022-09-01T09:16:53.507Z,20.60
2022-09-01T09:19:27.949Z,20.64
2022-09-01T09:22:07.632Z,20.64
2022-09-01T09:24:53.121Z,20.66
2022-09-01T09:27:27.967Z,20.68
2022-09-01T09:29:58.328Z,20.71
2022-09-01T09:33:25.110Z,20.73
2022-09-01T09:35:42.757Z,20.78
2022-09-01T09:38:33.328Z,20.83
2022-09-01T09:41:17.707Z,20.90
2022-09-01T09:43:50.225Z,20.92
2022-09-01T09:46:32.676Z,20.92
2022-09-01T09:49:35.212Z,20.95
2022-09-01T09:52:10.490Z,20.93
2022-09-01T09:55:23.982Z,20.92
2022-09-01T09:57:55.159Z,20.91
2022-09-01T10:00:34.736Z,20.89
2022-09-01T10:03:12.558Z,20.94
2022-09-01T10:06:05.605Z,20.95
2022-09-01T10:08:46.161Z,21.02
2022-09-01T10:11:33.533Z,21.02
2022-09-01T10:14:35.938Z,20.99
2022-09-01T10:17:49.119Z,21.00
2022-09-01T10:20:30.127Z,20.99
2022-09-01T10:23:03.810Z,20.98
2022-09-01T10:25:39.631Z,20.98
2022-09-01T10:28:20.868Z,21.01
2022-09-01T10:31:17.607Z,20.99
2022-09-01T10:33:45.437Z,21.01
2022-09-01T10:36:17.392Z,20.99
2022-09-01T10:38:54.513Z,21.08
2022-09-01T10:41:53.287Z,21.08
2022-09-01T10:44:39.551Z,21.04
2022-09-01T10:47:38.932Z,21.02
2022-09-01T10:50:36.577Z,21.02
2022-09-01T10:56:44.161Z,21.01
2022-09-01T10:59:35.735Z,20.98
2022-09-01T11:02:29.481Z,20.98
2022-09-01T11:05:05.684Z,21.00
2022-09-01T11:08:01.537Z,21.06
2022-09-01T11:10:57.215Z,21.05
2022-09-01T11:13:49.010Z,21.05
2022-09-01T11:16:48.012Z,21.07
2022-09-01T11:19:39.843Z,21.13
2022-09-01T11:22:21.735Z,21.17
2022-09-01T11:25:14.310Z,21.18
2022-09-01T11:27:50.772Z,21.29
2022-09-01T11:30:39.144Z,21.28
2022-09-01T11:33:24.602Z,21.30
2022-09-01T11:36:13.211Z,21.33
2022-09-01T11:38:51.851Z,21.34
2022-09-01T11:41:34.185Z,21.40
2022-09-01T11:44:04.600Z,21.43
2022-09-01T11:46:35.126Z,21.49
2022-09-01T11:49:08.696Z,21.52
2022-09-01T11:51:47.687Z,21.60
2022-09-01T11:54:15.919Z,21.63
2022-09-01T11:56:43.354Z,21.66
2022-09-01T11:59:10.822Z,21.66
2022-09-01T12:01:40.655Z,21.69
2022-09-01T12:04:32.264Z,21.79
2022-09-01T12:07:11.169Z,21.77
2022-09-01T12:09:48.317Z,21.85
2022-09-01T12:12:32.722Z,21.85
2022-09-01T12:15:11.072Z,21.93
2022-09-01T12:17:40.964Z,21.93
2022-09-01T12:20:29.501Z,22.01
2022-09-01T12:22:59.199Z,21.99
2022-09-01T12:25:33.557Z,22.06
2022-09-01T12:28:01.859Z,22.14
2022-09-01T12:30:30.298Z,22.17
2022-09-01T12:35:47.245Z,22.28
2022-09-01T12:38:20.259Z,22.27
2022-09-01T12:40:50.467Z,22.32
2022-09-01T12:43:37.080Z,22.34
2022-09-01T12:46:07.200Z,22.37
2022-09-01T12:48:39.041Z,22.41
2022-09-01T12:51:26.547Z,22.49
2022-09-01T12:54:04.527Z,22.57
2022-09-01T12:56:39.592Z,22.67
2022-09-01T12:59:15.526Z,22.69
2022-09-01T13:01:44.509Z,22.79
2022-09-01T13:04:23.093Z,22.85
2022-09-01T13:06:51.173Z,22.87
2022-09-01T13:09:18.419Z,22.91
2022-09-01T13:12:06.511Z,22.92
2022-09-01T13:14:34.077Z,23.00
2022-09-01T13:17:01.481Z,23.08
2022-09-01T13:19:30.625Z,23.08
2022-09-01T13:21:58.003Z,23.10
2022-09-01T13:24:29.411Z,23.06
2022-09-01T13:27:22.366Z,23.04
2022-09-01T13:29:54.687Z,23.03
2022-09-01T13:32:23.349Z,23.02
2022-09-01T13:34:52.596Z,22.99
2022-09-01T13:37:21.414Z,23.02
2022-09-01T13:39:49.409Z,23.05
2022-09-01T13:42:18.172Z,23.02
2022-09-01T13:44:48.391Z,23.01
2022-09-01T13:47:33.862Z,23.05
2022-09-01T13:50:10.547Z,23.12
2022-09-01T13:52:40.802Z,23.17
2022-09-01T13:55:10.832Z,23.23
2022-09-01T13:57:38.583Z,23.25
2022-09-01T14:00:13.325Z,23.24
2022-09-01T14:02:43.219Z,23.25
2022-09-01T14:05:11.357Z,23.24
2022-09-01T14:07:51.383Z,23.26
2022-09-01T14:10:25.122Z,23.27
2022-09-01T14:13:03.538Z,23.29
2022-09-01T14:15:30.408Z,23.27
2022-09-01T14:17:58.210Z,23.24
2022-09-01T14:20:33.375Z,23.24
2022-09-01T14:23:26.571Z,23.25
2022-09-01T14:25:53.673Z,23.26
2022-09-01T14:28:22.449Z,23.23
2022-09-01T14:33:17.875Z,23.24
2022-09-01T14:36:00.094Z,23.25
2022-09-01T14:38:26.891Z,23.23
2022-09-01T14:40:53.811Z,23.23
2022-09-01T14:43:21.271Z,23.26
2022-09-01T14:45:49.576Z,23.26
2022-09-01T14:48:37.138Z,23.23
2022-09-01T14:51:04.296Z,23.26
2022-09-01T14:53:32.073Z,23.25
2022-09-01T14:56:01.170Z,23.35
2022-09-01T14:58:43.368Z,23.34
2022-09-01T15:01:32.682Z,23.31
2022-09-01T15:03:57.805Z,23.26
2022-09-01T15:06:24.788Z,23.24
2022-09-01T15:08:51.774Z,23.22
2022-09-01T15:11:20.402Z,23.21
2022-09-01T15:14:03.948Z,23.20
2022-09-01T15:16:30.867Z,23.17
2022-09-01T15:18:57.868Z,23.14
2022-09-01T15:21:34.073Z,23.12
2022-09-01T15:24:02.931Z,23.14
2022-09-01T15:26:32.817Z,23.16
2022-09-01T15:28:59.930Z,23.18
2022-09-01T15:31:39.835Z,23.17
2022-09-01T15:34:19.206Z,23.19
2022-09-01T15:37:03.830Z,23.18
2022-09-01T15:39:37.755Z,23.21
2022-09-01T15:42:05.562Z,23.21
2022-09-01T15:44:34.182Z,23.23
2022-09-01T15:47:10.395Z,23.23
2022-09-01T15:49:37.232Z,23.21
2022-09-01T15:52:04.542Z,23.18
2022-09-01T15:54:38.459Z,23.14
2022-09-01T15:57:06.678Z,23.14
2022-09-01T15:59:42.033Z,23.15
2022-09-01T16:02:18.115Z,23.14
2022-09-01T16:04:47.743Z,23.13
2022-09-01T16:07:17.137Z,23.12
2022-09-01T16:09:46.334Z,23.11
2022-09-01T16:12:13.616Z,23.11
2022-09-01T16:14:42.391Z,23.09
2022-09-01T16:17:45.784Z,23.09
2022-09-01T16:20:36.059Z,23.13
2022-09-01T16:23:37.483Z,23.20
2022-09-01T16:26:08.156Z,23.21
2022-09-01T16:29:00.685Z,23.21
2022-09-01T16:31:32.188Z,23.18
2022-09-01T16:34:19.242Z,23.15
2022-09-01T16:36:56.642Z,23.13
2022-09-01T16:39:23.684Z,23.14
2022-09-01T16:42:03.707Z,23.17
2022-09-01T16:44:58.301Z,23.15
2022-09-01T16:47:45.277Z,23.14
2022-09-01T16:50:16.148Z,23.10
2022-09-01T16:53:08.226Z,23.08
2022-09-01T16:56:14.185Z,23.07
2022-09-01T16:58:52.838Z,23.06
2022-09-01T17:01:31.143Z,23.05
2022-09-01T17:04:17.098Z,23.06
2022-09-01T17:06:55.716Z,23.07
2022-09-01T17:09:40.312Z,23.07
2022-09-01T17:12:28.284Z,23.08
2022-09-01T17:15:10.371Z,23.07
2022-09-01T17:17:53.842Z,23.08
2022-09-01T17:20:28.200Z,23.05
2022-09-01T17:23:00.422Z,23.04
2022-09-01T17:25:33.945Z,23.02
2022-09-01T17:28:07.188Z,23.00
2022-09-01T17:30:44.898Z,22.96
2022-09-01T17:33:18.654Z,22.93
2022-09-01T17:36:07.930Z,22.92
2022-09-01T17:38:54.371Z,22.95
2022-09-01T17:41:41.526Z,22.91
2022-09-01T17:44:29.957Z,22.85
2022-09-01T17:47:03.636Z,22.86
2022-09-01T17:49:44.806Z,22.81
2022-09-01T17:53:10.595Z,22.81
2022-09-01T17:55:40.714Z,22.79
2022-09-01T17:58:13.825Z,22.76
2022-09-01T18:01:10.070Z,22.74
2022-09-01T18:03:45.885Z,22.76
2022-09-01T18:06:42.805Z,22.76
2022-09-01T18:09:14.788Z,22.70
2022-09-01T18:11:57.877Z,22.64
2022-09-01T18:14:48.121Z,22.65
2022-09-01T18:17:23.435Z,22.64
2022-09-01T18:20:03.813Z,22.61
2022-09-01T18:22:43.297Z,22.58
2022-09-01T18:25:19.492Z,22.53
2022-09-01T18:27:49.026Z,22.54
2022-09-01T18:30:26.247Z,22.50
2022-09-01T18:33:25.239Z,22.48
2022-09-01T18:36:29.549Z,22.48
2022-09-01T18:38:59.603Z,22.44
2022-09-01T18:41:49.937Z,22.40
2022-09-01T18:44:32.214Z,22.45
2022-09-01T18:46:59.282Z,22.48
2022-09-01T18:49:39.939Z,22.42
2022-09-01T18:52:35.480Z,22.39
2022-09-01T18:55:35.008Z,22.35
2022-09-01T18:58:37.012Z,22.36
2022-09-01T19:01:07.438Z,22.36
2022-09-01T19:04:10.330Z,22.32
2022-09-01T19:07:04.230Z,22.32
2022-09-01T19:09:43.013Z,22.29
2022-09-01T19:12:21.989Z,22.25
2022-09-01T19:14:55.194Z,22.21
2022-09-01T19:17:36.743Z,22.21
2022-09-01T19:20:26.904Z,22.21
2022-09-01T19:23:04.866Z,22.17
2022-09-01T19:25:34.543Z,22.15
2022-09-01T19:28:03.743Z,22.11
2022-09-01T19:30:35.416Z,22.08
2022-09-01T19:33:05.505Z,22.08
2022-09-01T19:35:34.581Z,22.06
2022-09-01T19:38:06.099Z,22.04
2022-09-01T19:40:39.593Z,22.03
2022-09-01T19:43:22.557Z,22.00
2022-09-01T19:46:23.183Z,22.00
2022-09-01T19:48:59.789Z,21.99
2022-09-01T19:52:10.062Z,22.02
2022-09-01T19:55:30.497Z,21.99
2022-09-01T19:58:06.770Z,21.96
2022-09-01T20:00:54.071Z,21.93
2022-09-01T20:03:29.620Z,21.92
2022-09-01T20:06:10.790Z,21.93
2022-09-01T20:08:49.893Z,21.90
2022-09-01T20:11:17.111Z,21.88
2022-09-01T20:14:17.722Z,21.85
2022-09-01T20:16:52.566Z,21.84
2022-09-01T20:19:57.471Z,21.84
2022-09-01T20:22:39.626Z,21.78
2022-09-01T20:25:13.102Z,21.77
2022-09-01T20:27:48.149Z,21.76
2022-09-01T20:30:20.572Z,21.71
2022-09-01T20:33:02.697Z,21.70
2022-09-01T20:35:44.616Z,21.63
2022-09-01T20:38:46.349Z,21.60
2022-09-01T20:41:37.452Z,21.59
2022-09-01T20:44:31.246Z,21.54
2022-09-01T20:46:59.633Z,21.50
2022-09-01T20:49:27.180Z,21.51
2022-09-01T20:52:02.698Z,21.51
2022-09-01T20:54:56.120Z,21.51
2022-09-01T20:57:47.332Z,21.51
2022-09-01T21:00:23.240Z,21.52
2022-09-01T21:03:18.321Z,21.50
2022-09-01T21:06:12.568Z,21.52
2022-09-01T21:08:49.094Z,21.52
2022-09-01T21:11:19.294Z,21.50
2022-09-01T21:13:53.195Z,21.50
2022-09-01T21:16:59.664Z,21.53
2022-09-01T21:19:46.101Z,21.53
2022-09-01T21:22:21.163Z,21.53
2022-09-01T21:24:50.045Z,21.50
2022-09-01T21:27:23.235Z,21.49
2022-09-01T21:30:18.789Z,21.46
2022-09-01T21:32:46.560Z,21.46
2022-09-01T21:35:22.791Z,21.44
2022-09-01T21:37:50.773Z,21.43
2022-09-01T21:40:22.088Z,21.44
2022-09-01T21:43:03.308Z,21.46
2022-09-01T21:45:35.434Z,21.45
2022-09-01T21:48:04.127Z,21.45
2022-09-01T21:50:31.132Z,21.46
2022-09-01T21:52:58.018Z,21.48
2022-09-01T21:55:25.201Z,21.46
2022-09-01T21:57:52.747Z,21.44
2022-09-01T22:00:23.088Z,21.43
2022-09-01T22:02:50.813Z,21.43
2022-09-01T22:05:17.811Z,21.45
2022-09-01T22:07:46.749Z,21.44
2022-09-01T22:10:21.397Z,21.43
2022-09-01T22:12:50.029Z,21.42
2022-09-01T22:15:21.939Z,21.42
2022-09-01T22:17:49.667Z,21.45
2022-09-01T22:20:19.163Z,21.43
2022-09-01T22:22:46.933Z,21.43
2022-09-01T22:25:16.890Z,21.44
2022-09-01T22:27:51.322Z,21.44
2022-09-01T22:30:19.423Z,21.43
2022-09-01T22:32:48.141Z,21.42
2022-09-01T22:35:16.699Z,21.42
2022-09-01T22:37:43.874Z,21.43
2022-09-01T22:40:12.893Z,21.43
2022-09-01T22:42:39.761Z,21.43
2022-09-01T22:45:08.615Z,21.41
2022-09-01T22:47:38.227Z,21.39
2022-09-01T22:50:13.199Z,21.33
2022-09-01T22:52:40.390Z,21.27
2022-09-01T22:55:09.094Z,21.21
2022-09-01T22:57:37.125Z,21.15
2022-09-01T23:00:08.910Z,21.10
2022-09-01T23:02:36.396Z,21.03
2022-09-01T23:05:03.591Z,20.96
2022-09-01T23:07:35.223Z,20.91
2022-09-01T23:10:06.933Z,20.87
2022-09-01T23:12:33.876Z,20.83
2022-09-01T23:15:00.666Z,20.76
2022-09-01T23:17:27.586Z,20.73
2022-09-01T23:19:54.694Z,20.70
2022-09-01T23:22:21.646Z,20.67
2022-09-01T23:24:48.455Z,20.62
2022-09-01T23:27:15.362Z,20.54
2022-09-01T23:29:42.198Z,20.44
2022-09-01T23:32:09.084Z,20.38
2022-09-01T23:34:36.016Z,20.35
2022-09-01T23:37:02.845Z,20.29
2022-09-01T23:39:29.659Z,20.23
2022-09-01T23:41:56.580Z,20.23
2022-09-01T23:44:23.838Z,20.14
2022-09-01T23:46:50.998Z,20.06
2022-09-01T23:49:18.981Z,20.02
2022-09-01T23:51:47.682Z,20.01
2022-09-01T23:54:15.542Z,19.96
2022-09-01T23:56:42.337Z,19.94
2022-09-01T23:59:12.347Z,19.91
